createdAt,value
2023-03-29T00:01:35.894Z,5.05
2023-03-29T00:04:39.099Z,2.08
2023-03-29T00:07:41.820Z,3.70
2023-03-29T00:10:43.814Z,1.73
2023-03-29T00:13:46.155Z,1.98
2023-03-29T00:16:48.313Z,2.20
2023-03-29T00:19:50.600Z,3.77
2023-03-29T00:22:52.582Z,2.53
2023-03-29T00:25:54.742Z,2.78
2023-03-29T00:28:56.727Z,4.43
2023-03-29T00:31:58.991Z,2.28
2023-03-29T00:35:01.146Z,2.90
2023-03-29T00:38:03.301Z,6.15
2023-03-29T00:41:06.975Z,3.63
2023-03-29T00:44:28.902Z,3.92
2023-03-29T00:47:42.654Z,4.85
2023-03-29T00:50:54.198Z,4.77
2023-03-29T00:53:57.630Z,6.82
2023-03-29T00:57:04.094Z,3.33
2023-03-29T01:00:10.221Z,4.73
2023-03-29T01:03:14.415Z,4.53
2023-03-29T01:06:18.486Z,3.38
2023-03-29T01:09:21.976Z,4.28
2023-03-29T01:12:32.848Z,3.78
2023-03-29T01:15:35.141Z,3.67
2023-03-29T01:18:37.571Z,3.58
2023-03-29T01:21:42.705Z,8.60
2023-03-29T01:25:05.412Z,5.88
2023-03-29T01:28:11.615Z,3.00
2023-03-29T01:31:19.872Z,4.70
2023-03-29T01:34:25.704Z,4.18
2023-03-29T01:37:30.505Z,4.15
2023-03-29T01:40:32.693Z,5.65
2023-03-29T01:43:37.792Z,7.22
2023-03-29T01:46:47.020Z,4.20
2023-03-29T01:50:09.351Z,9.30
2023-03-29T01:53:24.818Z,6.20
2023-03-29T01:56:28.739Z,6.28
2023-03-29T01:59:32.510Z,5.32
2023-03-29T02:02:34.805Z,13.43
2023-03-29T02:05:39.412Z,11.98
2023-03-29T02:08:41.926Z,8.70
2023-03-29T02:11:44.538Z,9.32
2023-03-29T02:14:46.732Z,6.68
2023-03-29T02:17:49.561Z,5.10
2023-03-29T02:20:52.530Z,4.50
2023-03-29T02:23:55.720Z,4.83
2023-03-29T02:26:58.283Z,4.47
2023-03-29T02:30:00.732Z,4.25
2023-03-29T02:33:24.055Z,6.70
2023-03-29T02:36:32.337Z,7.47
2023-03-29T02:39:34.861Z,5.90
2023-03-29T02:42:37.242Z,4.72
2023-03-29T02:45:39.899Z,7.47
2023-03-29T02:48:42.164Z,7.00
2023-03-29T02:51:47.398Z,11.80
2023-03-29T02:54:51.372Z,6.93
2023-03-29T02:57:53.349Z,9.43
2023-03-29T03:00:56.585Z,6.15
2023-03-29T03:03:58.638Z,8.10
2023-03-29T03:07:00.786Z,13.07
2023-03-29T03:10:04.105Z,6.47
2023-03-29T03:13:06.229Z,11.15
2023-03-29T03:16:09.583Z,7.15
2023-03-29T03:19:11.694Z,5.55
2023-03-29T03:22:13.853Z,10.75
2023-03-29T03:25:16.913Z,9.83
2023-03-29T03:28:19.021Z,8.90
2023-03-29T03:31:21.558Z,10.82
2023-03-29T03:34:42.369Z,9.27
2023-03-29T03:37:44.417Z,11.50
2023-03-29T03:40:53.518Z,11.18
2023-03-29T03:43:55.584Z,13.23
2023-03-29T03:46:57.858Z,7.25
2023-03-29T03:50:00.143Z,11.98
2023-03-29T03:53:02.192Z,12.82
2023-03-29T03:56:20.560Z,13.30
2023-03-29T03:59:43.254Z,19.45
2023-03-29T04:02:51.885Z,15.57
2023-03-29T04:05:53.964Z,15.60
2023-03-29T04:08:59.807Z,10.48
2023-03-29T04:12:12.239Z,14.75
2023-03-29T04:15:17.907Z,11.93
2023-03-29T04:18:26.989Z,13.80
2023-03-29T04:21:33.992Z,15.57
2023-03-29T04:24:36.200Z,19.13
2023-03-29T04:28:07.297Z,11.40
2023-03-29T04:31:24.677Z,12.82
2023-03-29T04:34:39.537Z,10.23
2023-03-29T04:37:42.005Z,10.90
2023-03-29T04:40:47.405Z,14.50
2023-03-29T04:44:12.485Z,12.23
2023-03-29T04:47:14.950Z,8.70
2023-03-29T04:50:17.018Z,9.55
2023-03-29T04:53:21.032Z,17.83
2023-03-29T04:56:24.395Z,22.55
2023-03-29T04:59:45.198Z,24.47
2023-03-29T05:02:59.692Z,23.98
2023-03-29T05:06:08.884Z,27.60
2023-03-29T05:09:12.585Z,29.13
2023-03-29T05:12:25.249Z,30.98
2023-03-29T05:15:28.430Z,27.30
2023-03-29T05:18:31.103Z,23.80
2023-03-29T05:21:33.577Z,27.85
2023-03-29T05:24:39.291Z,27.98
2023-03-29T05:27:53.211Z,23.17
2023-03-29T05:31:02.541Z,16.67
2023-03-29T05:34:05.586Z,16.60
2023-03-29T05:37:10.372Z,21.35
2023-03-29T05:40:26.434Z,23.83
2023-03-29T05:43:48.468Z,24.77
2023-03-29T05:46:51.287Z,21.45
2023-03-29T05:49:53.543Z,22.52
2023-03-29T05:52:58.216Z,26.20
2023-03-29T05:56:00.481Z,22.60
2023-03-29T05:59:06.664Z,24.63
2023-03-29T06:02:10.714Z,17.13
2023-03-29T06:05:20.427Z,17.08
2023-03-29T06:08:35.075Z,13.30
2023-03-29T06:12:04.154Z,17.23
2023-03-29T06:15:26.504Z,12.77
2023-03-29T06:18:38.296Z,13.52
2023-03-29T06:21:41.362Z,18.98
2023-03-29T06:24:46.419Z,21.63
2023-03-29T06:27:57.902Z,14.05
2023-03-29T06:31:02.832Z,12.80
2023-03-29T06:34:10.145Z,10.23
2023-03-29T06:37:49.534Z,6.43
2023-03-29T06:41:08.898Z,6.88
2023-03-29T06:44:38.253Z,6.50
2023-03-29T06:47:47.243Z,8.43
2023-03-29T06:50:49.604Z,9.70
2023-03-29T06:53:52.935Z,7.80
2023-03-29T06:56:55.155Z,7.18
2023-03-29T06:59:58.184Z,5.60
2023-03-29T07:03:29.411Z,5.97
2023-03-29T07:06:32.215Z,5.17
2023-03-29T07:09:35.996Z,4.60
2023-03-29T07:13:08.859Z,5.10
2023-03-29T07:16:13.053Z,5.87
2023-03-29T07:19:34.229Z,5.80
2023-03-29T07:22:58.060Z,11.63
2023-03-29T07:26:00.417Z,6.30
2023-03-29T07:29:02.886Z,7.40
2023-03-29T07:32:05.847Z,4.97
2023-03-29T07:35:31.031Z,5.00
2023-03-29T07:38:33.966Z,6.07
2023-03-29T07:41:40.892Z,4.07
2023-03-29T07:44:48.939Z,4.47
2023-03-29T07:47:54.584Z,4.53
2023-03-29T07:50:56.928Z,5.63
2023-03-29T07:54:06.489Z,3.22
2023-03-29T07:57:20.279Z,4.53
2023-03-29T08:00:28.346Z,4.83
2023-03-29T08:03:50.574Z,3.65
2023-03-29T08:06:53.171Z,3.15
2023-03-29T08:09:58.115Z,3.88
2023-03-29T08:13:29.861Z,4.50
2023-03-29T08:16:55.185Z,4.45
2023-03-29T08:19:57.765Z,5.20
2023-03-29T08:23:00.809Z,4.30
2023-03-29T08:26:24.448Z,4.20
2023-03-29T08:29:27.805Z,6.20
2023-03-29T08:32:30.320Z,4.43
2023-03-29T08:35:32.842Z,5.03
2023-03-29T08:38:45.577Z,7.13
2023-03-29T08:42:07.029Z,4.73
2023-03-29T08:45:21.253Z,5.53
2023-03-29T08:48:38.669Z,5.72
2023-03-29T08:51:45.306Z,5.70
2023-03-29T08:54:50.680Z,4.70
2023-03-29T08:58:32.404Z,5.07
2023-03-29T09:01:36.363Z,5.88
2023-03-29T09:04:39.914Z,4.68
2023-03-29T09:08:16.517Z,5.70
2023-03-29T09:11:25.095Z,4.15
2023-03-29T09:14:27.763Z,3.42
2023-03-29T09:17:30.069Z,3.72
2023-03-29T09:20:37.520Z,3.37
2023-03-29T09:23:52.767Z,3.67
2023-03-29T09:27:26.532Z,3.22
2023-03-29T09:30:39.710Z,4.40
2023-03-29T09:33:46.919Z,5.97
2023-03-29T09:36:52.697Z,5.30
2023-03-29T09:39:57.667Z,5.43
2023-03-29T09:43:16.281Z,4.10
2023-03-29T09:46:25.303Z,5.32
2023-03-29T09:49:39.964Z,4.35
2023-03-29T09:52:44.124Z,3.13
2023-03-29T09:55:55.401Z,4.35
2023-03-29T09:59:17.726Z,4.28
2023-03-29T10:02:21.290Z,4.47
2023-03-29T10:05:25.267Z,3.95
2023-03-29T10:08:39.616Z,3.53
2023-03-29T10:11:47.800Z,6.30
2023-03-29T10:14:53.615Z,4.80
2023-03-29T10:18:01.162Z,10.50
2023-03-29T10:21:04.656Z,12.65
2023-03-29T10:24:09.406Z,3.10
2023-03-29T10:27:12.252Z,4.88
2023-03-29T10:30:20.587Z,3.22
2023-03-29T10:33:27.187Z,5.25
2023-03-29T10:36:29.898Z,4.10
2023-03-29T10:39:35.610Z,3.60
2023-03-29T10:42:47.239Z,4.68
2023-03-29T10:45:51.819Z,3.47
2023-03-29T10:48:59.434Z,5.72
2023-03-29T10:52:04.890Z,4.50
2023-03-29T10:55:16.065Z,4.40
2023-03-29T10:58:27.647Z,5.00
2023-03-29T11:01:50.263Z,5.72
2023-03-29T11:05:03.714Z,5.10
2023-03-29T11:08:09.898Z,6.43
2023-03-29T11:11:23.683Z,4.53
2023-03-29T11:14:29.485Z,5.97
2023-03-29T11:17:41.280Z,6.55
2023-03-29T11:21:02.738Z,4.82
2023-03-29T11:24:09.229Z,4.40
2023-03-29T11:27:30.180Z,4.30
2023-03-29T11:30:42.248Z,5.65
2023-03-29T11:33:59.937Z,4.22
2023-03-29T11:37:03.151Z,5.60
2023-03-29T11:40:24.182Z,8.30
2023-03-29T11:43:38.670Z,7.10
2023-03-29T11:46:43.585Z,8.07
2023-03-29T11:49:49.392Z,7.85
2023-03-29T11:52:54.189Z,5.18
2023-03-29T11:55:57.255Z,6.23
2023-03-29T11:59:02.724Z,7.93
2023-03-29T12:02:25.410Z,4.10
2023-03-29T12:05:32.538Z,3.97
2023-03-29T12:09:04.144Z,7.03
2023-03-29T12:12:09.613Z,6.93
2023-03-29T12:15:20.531Z,4.63
2023-03-29T12:18:28.445Z,4.80
2023-03-29T12:21:31.226Z,5.82
2023-03-29T12:24:35.678Z,7.32
2023-03-29T12:27:42.496Z,4.00
2023-03-29T12:31:05.368Z,5.10
2023-03-29T12:34:29.626Z,16.85
2023-03-29T12:37:40.444Z,8.68
2023-03-29T12:41:03.136Z,7.55
2023-03-29T12:44:50.716Z,5.57
2023-03-29T12:48:02.134Z,4.07
2023-03-29T12:51:05.305Z,6.45
2023-03-29T12:54:14.637Z,6.53
2023-03-29T12:57:35.162Z,7.53
2023-03-29T13:00:38.762Z,9.20
2023-03-29T13:03:50.494Z,5.97
2023-03-29T13:07:02.771Z,4.80
2023-03-29T13:10:09.053Z,6.03
2023-03-29T13:13:18.996Z,8.90
2023-03-29T13:16:29.059Z,8.20
2023-03-29T13:19:34.705Z,7.30
2023-03-29T13:22:57.130Z,6.55
2023-03-29T13:26:08.350Z,5.22
2023-03-29T13:29:29.163Z,6.93
2023-03-29T13:32:57.213Z,8.53
2023-03-29T13:36:02.841Z,5.83
2023-03-29T13:39:07.015Z,6.68
2023-03-29T13:42:28.386Z,7.88
2023-03-29T13:45:32.545Z,5.30
2023-03-29T13:48:37.820Z,5.93
2023-03-29T13:51:42.089Z,8.77
2023-03-29T13:54:44.319Z,4.72
2023-03-29T13:58:08.134Z,5.65
2023-03-29T14:01:24.867Z,5.18
2023-03-29T14:04:29.444Z,4.07
2023-03-29T14:07:32.666Z,5.10
2023-03-29T14:10:39.214Z,7.63
2023-03-29T14:13:41.800Z,13.15
2023-03-29T14:16:44.035Z,6.00
2023-03-29T14:19:47.271Z,8.47
2023-03-29T14:22:49.622Z,7.20
2023-03-29T14:25:51.776Z,10.35
2023-03-29T14:28:56.690Z,5.82
2023-03-29T14:32:08.996Z,9.95
2023-03-29T14:35:11.178Z,5.53
2023-03-29T14:38:14.090Z,5.80
2023-03-29T14:41:17.562Z,7.70
2023-03-29T14:44:24.233Z,7.82
2023-03-29T14:47:27.906Z,7.97
2023-03-29T14:50:31.138Z,7.40
2023-03-29T14:53:34.611Z,7.93
2023-03-29T14:56:36.829Z,5.22
2023-03-29T14:59:41.399Z,5.90
2023-03-29T15:02:50.447Z,9.07
2023-03-29T15:05:54.608Z,6.07
2023-03-29T15:09:05.235Z,4.63
2023-03-29T15:12:15.636Z,6.30
2023-03-29T15:15:17.964Z,4.68
2023-03-29T15:18:24.156Z,8.20
2023-03-29T15:21:29.376Z,7.78
2023-03-29T15:24:32.699Z,7.18
2023-03-29T15:27:44.191Z,6.60
2023-03-29T15:30:54.236Z,6.78
2023-03-29T15:34:09.404Z,8.88
2023-03-29T15:37:12.731Z,4.13
2023-03-29T15:40:16.358Z,6.23
2023-03-29T15:43:21.341Z,5.97
2023-03-29T15:46:23.474Z,5.47
2023-03-29T15:49:26.098Z,8.18
2023-03-29T15:52:28.300Z,7.13
2023-03-29T15:55:30.402Z,7.53
2023-03-29T15:58:33.822Z,7.90
2023-03-29T16:01:37.728Z,14.23
2023-03-29T16:04:39.907Z,11.63
2023-03-29T16:07:41.943Z,7.40
2023-03-29T16:10:44.024Z,16.30
2023-03-29T16:13:46.041Z,12.17
2023-03-29T16:16:48.125Z,14.38
2023-03-29T16:19:50.234Z,8.68
2023-03-29T16:22:54.226Z,11.65
2023-03-29T16:25:56.266Z,10.90
2023-03-29T16:28:58.396Z,10.88
2023-03-29T16:32:00.969Z,10.02
2023-03-29T16:35:04.545Z,8.33
2023-03-29T16:38:07.109Z,6.72
2023-03-29T16:41:13.963Z,8.65
2023-03-29T16:44:17.228Z,13.73
2023-03-29T16:47:19.250Z,13.23
2023-03-29T16:50:22.037Z,12.10
2023-03-29T16:53:24.156Z,9.20
2023-03-29T16:56:28.383Z,12.45
2023-03-29T16:59:30.757Z,9.87
2023-03-29T17:02:32.879Z,10.50
2023-03-29T17:05:41.333Z,10.13
2023-03-29T17:08:43.507Z,16.87
2023-03-29T17:11:46.384Z,15.98
2023-03-29T17:14:48.819Z,15.27
2023-03-29T17:17:51.246Z,10.05
2023-03-29T17:20:56.810Z,10.97
2023-03-29T17:23:58.797Z,19.92
2023-03-29T17:27:00.990Z,21.17
2023-03-29T17:30:03.750Z,26.35
2023-03-29T17:33:05.929Z,26.38
2023-03-29T17:36:08.477Z,30.42
2023-03-29T17:39:10.915Z,48.60
2023-03-29T17:42:13.833Z,37.50
2023-03-29T17:45:16.337Z,36.08
2023-03-29T17:48:19.395Z,40.03
2023-03-29T17:51:23.703Z,44.90
2023-03-29T17:54:26.321Z,55.53
2023-03-29T17:57:28.542Z,56.30
2023-03-29T18:00:30.764Z,75.15
2023-03-29T18:03:33.149Z,73.93
2023-03-29T18:06:35.498Z,76.43
2023-03-29T18:09:37.534Z,67.15
2023-03-29T18:12:39.671Z,61.77
2023-03-29T18:15:42.157Z,55.95
2023-03-29T18:18:46.443Z,36.92
2023-03-29T18:21:48.526Z,36.67
2023-03-29T18:24:51.147Z,40.78
2023-03-29T18:27:53.178Z,25.52
2023-03-29T18:30:55.571Z,22.23
2023-03-29T18:33:57.685Z,21.20
2023-03-29T18:36:59.731Z,20.27
2023-03-29T18:40:02.189Z,20.13
2023-03-29T18:43:04.297Z,17.60
2023-03-29T18:46:07.138Z,30.48
2023-03-29T18:49:09.445Z,61.10
2023-03-29T18:52:11.451Z,63.45
2023-03-29T18:55:13.549Z,60.13
2023-03-29T18:58:16.363Z,48.70
2023-03-29T19:01:18.708Z,34.22
2023-03-29T19:04:21.244Z,34.83
2023-03-29T19:07:23.462Z,37.95
2023-03-29T19:10:25.853Z,40.92
2023-03-29T19:13:27.847Z,29.27
2023-03-29T19:16:29.878Z,28.10
2023-03-29T19:19:31.923Z,23.85
2023-03-29T19:22:34.097Z,24.23
2023-03-29T19:25:36.589Z,22.73
2023-03-29T19:28:38.660Z,25.15
2023-03-29T19:31:40.999Z,26.13
2023-03-29T19:34:43.081Z,30.43
2023-03-29T19:37:45.098Z,51.50
2023-03-29T19:40:51.486Z,37.63
2023-03-29T19:43:53.737Z,31.50
2023-03-29T19:46:55.783Z,27.63
2023-03-29T19:49:58.573Z,32.72
2023-03-29T19:53:00.965Z,36.63
2023-03-29T19:56:04.317Z,35.33
2023-03-29T19:59:06.785Z,28.60
2023-03-29T20:02:12.294Z,28.30
2023-03-29T20:05:16.041Z,31.63
2023-03-29T20:08:18.116Z,28.40
2023-03-29T20:11:23.990Z,30.17
2023-03-29T20:14:26.218Z,34.47
2023-03-29T20:17:28.271Z,33.80
2023-03-29T20:20:30.321Z,27.55
2023-03-29T20:23:32.307Z,24.88
2023-03-29T20:26:34.337Z,23.10
2023-03-29T20:29:36.593Z,21.67
2023-03-29T20:32:38.688Z,20.80
2023-03-29T20:35:40.771Z,24.83
2023-03-29T20:38:42.863Z,19.98
2023-03-29T20:41:47.641Z,19.98
2023-03-29T20:44:50.614Z,16.23
2023-03-29T20:48:02.358Z,21.23
2023-03-29T20:51:11.161Z,21.70
2023-03-29T20:54:13.230Z,22.00
2023-03-29T20:57:16.471Z,27.67
2023-03-29T21:00:19.887Z,26.17
2023-03-29T21:03:21.957Z,27.00
2023-03-29T21:06:24.463Z,14.80
2023-03-29T21:09:26.566Z,15.25
2023-03-29T21:12:29.319Z,18.20
2023-03-29T21:15:32.135Z,22.05
2023-03-29T21:18:38.764Z,22.63
2023-03-29T21:21:44.898Z,21.95
2023-03-29T21:24:46.947Z,19.08
2023-03-29T21:27:49.222Z,23.00
2023-03-29T21:30:51.350Z,18.00
2023-03-29T21:33:56.272Z,17.08
2023-03-29T21:36:58.311Z,16.65
2023-03-29T21:40:00.391Z,20.13
2023-03-29T21:43:02.422Z,16.20
2023-03-29T21:46:04.502Z,17.52
2023-03-29T21:49:06.553Z,14.37
2023-03-29T21:52:08.615Z,15.20
2023-03-29T21:55:10.619Z,11.00
2023-03-29T21:58:12.626Z,12.20
2023-03-29T22:01:14.781Z,11.60
2023-03-29T22:04:29.173Z,13.13
2023-03-29T22:07:40.804Z,10.38
2023-03-29T22:10:42.821Z,10.95
2023-03-29T22:13:45.410Z,11.63
2023-03-29T22:16:47.584Z,12.43
2023-03-29T22:19:49.768Z,11.33
2023-03-29T22:22:51.836Z,11.35
2023-03-29T22:25:53.929Z,9.20
2023-03-29T22:28:56.855Z,11.93
2023-03-29T22:31:58.896Z,10.50
2023-03-29T22:35:01.256Z,12.10
2023-03-29T22:38:03.381Z,11.50
2023-03-29T22:41:06.208Z,13.98
2023-03-29T22:44:08.956Z,12.23
2023-03-29T22:47:11.074Z,10.95
2023-03-29T22:50:13.177Z,8.33
2023-03-29T22:53:15.269Z,10.40
2023-03-29T22:56:17.754Z,14.23
2023-03-29T22:59:19.933Z,10.33
2023-03-29T23:02:22.016Z,12.55
2023-03-29T23:05:24.060Z,11.00
2023-03-29T23:08:26.223Z,10.73
2023-03-29T23:11:28.255Z,11.15
2023-03-29T23:14:30.282Z,10.02
2023-03-29T23:17:32.782Z,8.75
2023-03-29T23:20:35.201Z,7.43
2023-03-29T23:23:37.528Z,8.23
2023-03-29T23:26:39.554Z,6.97
2023-03-29T23:29:42.281Z,7.73
2023-03-29T23:32:44.307Z,9.40
2023-03-29T23:35:46.695Z,7.22
2023-03-29T23:38:49.037Z,7.57
2023-03-29T23:41:51.087Z,7.45
2023-03-29T23:44:53.086Z,9.85
2023-03-29T23:47:56.160Z,8.35
2023-03-29T23:50:58.297Z,9.03
2023-03-29T23:54:00.310Z,9.50
2023-03-29T23:57:02.366Z,7.40
